• Join FlightAware (Why Join?)
  • Login
  • US Flag 
04:51AM EDT


 

Airport Tracker/Info


-or-


 

Live Flight TrackerFlight Track Log ✈ N778AN ✈ 26-Apr-2013 ✈ EGLL / LHR - KORD

Flight Track Log - Related Links

Times and Time Zones

All times are in EDT time to prevent confusion due to time zone crossing. See the N778AN flight status page for this flight to view local times or setup timezone preferences in your user account.

Time Position Orientation Groundspeed Altitude Reporting Facility
EDT Latitude Longitude Course Direction KTS MPH feet Rate Location/Type
08:10AM 51.4651 -0.5090 1000° North 1,300  Level FlightAware ADS-B
08:11AM 51.4656 -0.5307 272° West 167 192 1,900 1,920 Climbing FlightAware ADS-B
08:11AM 51.4660 -0.5434 273° West 168 193 2,200 1,440 Climbing FlightAware ADS-B
08:11AM 51.4664 -0.5628 272° West 176 203 2,500 1,680 Climbing FlightAware ADS-B
08:11AM 51.4667 -0.5796 272° West 174 200 3,000 2,280 Climbing FlightAware ADS-B
08:11AM 51.4668 -0.5901 271° West 172 198 3,300 2,100 Climbing FlightAware ADS-B
08:11AM 51.4667 -0.6014 269° West 171 197 3,600 1,800 Climbing FlightAware ADS-B
08:12AM 51.4665 -0.6064 266° West 174 200 3,700 1,200 Climbing FlightAware ADS-B
08:12AM 51.4658 -0.6147 262° West 180 207 3,800 540 Climbing FlightAware ADS-B
08:12AM 51.4650 -0.6206 258° West 186 214 3,800 600 Level FlightAware ADS-B
08:12AM 51.4638 -0.6275 254° West 191 220 3,900 1,500 Climbing FlightAware ADS-B
08:12AM 51.4617 -0.6377 252° West 197 227 4,100 1,260 Climbing FlightAware ADS-B
08:12AM 51.4580 -0.6547 251° West 207 238 4,300 1,020 Climbing FlightAware ADS-B
08:12AM 51.4566 -0.6614 251° West 212 244 4,400 1,320 Climbing FlightAware ADS-B
08:12AM 51.4556 -0.6676 256° West 214 246 4,500 720 Climbing FlightAware ADS-B
08:12AM 51.4549 -0.6734 259° West 217 250 4,500 840 Level FlightAware ADS-B
08:12AM 51.4545 -0.6789 263° West 219 252 4,600 1,680 Climbing FlightAware ADS-B
08:12AM 51.4542 -0.6855 266° West 222 255 4,700 960 Climbing FlightAware ADS-B
08:13AM 51.4539 -0.6994 268° West 231 266 4,800 960 Climbing FlightAware ADS-B
08:13AM 51.4539 -0.7262 270° West 244 281 5,100 1,320 Climbing FlightAware ADS-B
08:13AM 51.4539 -0.7378 270° West 247 284 5,300 1,800 Climbing FlightAware ADS-B
08:13AM 51.4545 -0.7500 274° West 249 287 5,500 2,160 Climbing FlightAware ADS-B
08:13AM 51.4553 -0.7581 279° West 251 289 5,700 2,520 Climbing FlightAware ADS-B
08:13AM 51.4562 -0.7641 284° West 252 290 5,800 1,680 Climbing FlightAware ADS-B
08:13AM 51.4573 -0.7698 287° West 253 291 5,900 2,160 Climbing FlightAware ADS-B
08:14AM 51.4635 -0.7966 290° West 254 292 6,500 2,460 Climbing FlightAware ADS-B
08:14AM 51.4698 -0.8244 290° West 253 291 7,200 2,580 Climbing FlightAware ADS-B
08:14AM 51.4731 -0.8383 291° West 254 292 7,500 2,220 Climbing FlightAware ADS-B
08:14AM 51.4769 -0.8537 292° West 256 295 7,800 1,200 Climbing FlightAware ADS-B
08:14AM 51.4837 -0.8812 292° West 264 304 8,000 360 Climbing FlightAware ADS-B
08:15AM 51.4906 -0.9087 292° West 266 306 8,000  Level FlightAware ADS-B
08:15AM 51.4985 -0.9403 292° West 263 303 8,000 180 Level FlightAware ADS-B
08:15AM 51.5032 -0.9592 292° West 264 304 8,100 780 Climbing FlightAware ADS-B
08:15AM 51.5051 -0.9674 290° West 264 304 8,200 1,980 Climbing FlightAware ADS-B
08:15AM 51.5077 -0.9808 287° West 262 302 8,500 2,220 Climbing FlightAware ADS-B
08:15AM 51.5105 -0.9975 285° West 262 302 8,800 2,220 Climbing FlightAware ADS-B
08:16AM 51.5143 -1.0261 282° West 265 305 9,400 2,400 Climbing FlightAware ADS-B
08:16AM 51.5178 -1.0455 286° West 264 304 9,800 -1,200 Climbing FlightAware ADS-B
08:16AM 51.5272 -1.0838 286° West 288 331 8,800 1,320 Descending FlightAware UK
08:16AM 51.5319 -1.1018 286° West 284 327 10,500 3,480 Climbing FlightAware ADS-B
08:17AM 51.5447 -1.1517 292° West 311 358 10,800 -1,260 Climbing FlightAware ADS-B
08:17AM 51.5556 -1.1972 292° West 344 396 9,600 1,500 Descending FlightAware UK
08:17AM 51.5600 -1.2216 292° West 330 380 11,600 6,240 Climbing FlightAware ADS-B
08:18AM 51.5737 -1.2894 288° West 304 350 13,900 3,240 Climbing FlightAware ADS-B
08:18AM 51.5874 -1.3586 288° West 310 357 15,000 -300 Climbing FlightAware ADS-B
08:19AM 51.5948 -1.3963 288° West 360 414 13,700 1,140 Descending FlightAware UK
08:19AM 51.6012 -1.4284 288° West 338 389 15,600 4,200 Climbing FlightAware ADS-B
08:19AM 51.6157 -1.5010 288° West 344 396 16,800 360 Climbing FlightAware ADS-B
08:20AM 51.6237 -1.5412 288° West 380 437 15,900 2,100 Descending FlightAware UK
08:20AM 51.6309 -1.5772 288° West 354 407 17,900 2,160 Climbing FlightAware ADS-B
08:20AM 51.6417 -1.6314 288° West 390 449 17,200 2,400 Descending FlightAware UK
08:20AM 51.6462 -1.6542 288° West 360 414 19,100 4,740 Climbing FlightAware ADS-B
08:21AM 51.6615 -1.7320 288° West 363 418 20,300 300 Climbing FlightAware ADS-B
08:21AM 51.6720 -1.7852 288° West 406 467 19,400 2,100 Descending FlightAware UK
08:21AM 51.6770 -1.8117 288° West 369 425 21,400 4,500 Climbing FlightAware ADS-B
08:22AM 51.6924 -1.8907 287° West 374 430 22,400 120 Climbing FlightAware ADS-B
08:22AM 51.7026 -1.9434 287° West 418 481 21,500 1,920 Descending FlightAware UK
08:22AM 51.7084 -1.9728 287° West 380 437 23,400 3,900 Climbing FlightAware ADS-B
08:23AM 51.7244 -2.0558 287° West 388 447 24,200 -420 Climbing FlightAware ADS-B
08:23AM 51.7343 -2.1070 287° West 428 493 23,100 1,560 Descending FlightAware UK
08:23AM 51.7405 -2.1393 287° West 394 453 25,000 1,620 Climbing FlightAware ADS-B
08:24AM 51.7538 -2.2081 287° West 438 504 24,100 1,680 Descending FlightAware UK
08:24AM 51.7575 -2.2281 287° West 400 460 25,900 1,500 Climbing FlightAware ADS-B
08:24AM 51.7669 -2.2763 287° West 438 504 24,700 1,320 Descending FlightAware UK
08:24AM 51.7747 -2.3183 287° West 408 470 26,600 1,320 Climbing FlightAware ADS-B
08:25AM 51.7865 -2.3807 287° West 446 513 25,500 1,140 Descending FlightAware UK
08:25AM 51.7920 -2.4095 287° West 414 476 27,200 960 Climbing FlightAware ADS-B
08:25AM 51.8068 -2.4879 287° West 454 522 26,100 1,200 Descending FlightAware UK
08:25AM 51.8109 -2.5110 287° West 422 486 27,900 1,500 Climbing FlightAware ADS-B
08:26AM 51.8197 -2.5604 287° West 456 525 26,700 1,080 Descending FlightAware UK
08:26AM 51.8283 -2.6228 287° West 426 490 28,600 1,140 Climbing FlightAware ADS-B
08:26AM 51.8353 -2.6720 287° West 462 532 27,400 -1,680 Descending FlightAware UK
08:27AM 51.8430 -2.7284 282° West 466 536 27,700 4,920 Climbing FlightAware UK
08:27AM 51.8430 -2.7310 282° West 431 496 29,300 1,200 Climbing FlightAware
08:27AM 51.8556 -2.8223 282° West 474 545 28,300 1,200 Descending FlightAware UK
08:27AM 51.8610 -2.8610 282° West 436 502 30,100 960 Climbing FlightAware
08:28AM 51.8683 -2.9175 282° West 474 545 28,800 -1,860 Descending FlightAware UK
08:28AM 51.8759 -2.9746 282° West 480 552 29,100 4,800 Climbing FlightAware UK
08:28AM 51.8770 -2.9850 282° West 442 509 30,800 960 Climbing FlightAware
08:29AM 51.8937 -3.1120 282° West 482 555 29,800 780 Descending FlightAware UK
08:29AM 51.8970 -3.1380 282° West 451 519 31,400 780 Climbing FlightAware
08:29AM 51.9066 -3.2112 282° West 490 564 30,200 -1,440 Descending FlightAware UK
08:29AM 51.9144 -3.2704 282° West 492 566 30,500 5,700 Climbing FlightAware UK
08:29AM 51.9150 -3.2720 282° West 455 524 32,100 960 Climbing FlightAware
08:30AM 51.9223 -3.3304 282° West 492 566 30,800 -1,440 Descending FlightAware UK
08:30AM 51.9300 -3.3907 282° West 490 564 31,300 4,500 Climbing FlightAware UK
08:30AM 51.9330 -3.4120 282° West 455 524 33,000 960 Climbing FlightAware
08:31AM 51.9429 -3.4909 282° West 488 562 31,800 900 Descending FlightAware UK
08:31AM 51.9500 -3.5460 282° West 459 528 33,600 960 Climbing FlightAware
08:31AM 51.9632 -3.6515 282° West 490 564 32,600 1,020 Descending FlightAware UK
08:32AM 51.9700 -3.7080 282° West 459 528 34,400 660 Climbing FlightAware
08:32AM 51.9810 -3.7930 282° West 488 562 33,100 720 Descending FlightAware UK
08:32AM 51.9870 -3.8400 282° West 462 532 34,900 540 Climbing FlightAware
08:33AM 51.9988 -3.9351 282° West 492 566 33,500 420 Descending FlightAware UK
08:33AM 52.0030 -3.9720 282° West 461 531 35,200 780 Climbing FlightAware
08:33AM 52.0112 -4.0366 282° West 488 562 33,900 -1,980 Descending FlightAware UK
08:34AM 52.0188 -4.0974 281° West 488 562 34,100 3,900 Climbing FlightAware UK
08:34AM 52.0220 -4.1270 281° West 458 527 35,800 780 Climbing FlightAware
08:34AM 52.0311 -4.1979 281° West 488 562 34,500 -2,220 Descending FlightAware UK
08:34AM 52.0384 -4.2587 281° West 490 564 34,500 4,080 Level FlightAware UK
08:34AM 52.0380 -4.2580 281° West 460 529 36,000  Climbing FlightAware
08:35AM 52.0507 -4.3601 281° West 492 566 34,500  Descending FlightAware UK
08:35AM 52.0570 -4.4130 281° West 457 526 36,000 -180 Climbing FlightAware
08:35AM 52.0651 -4.4814 281° West 488 562 34,400 -2,760 Descending FlightAware UK
08:36AM 52.0722 -4.5418 281° West 484 557 34,400 4,140 Level FlightAware UK
08:36AM 52.0730 -4.5520 281° West 456 525 36,000  Climbing FlightAware
08:36AM 52.0817 -4.6222 281° West 488 562 34,400 -2,640 Descending FlightAware UK
08:36AM 52.0890 -4.6825 281° West 488 562 34,400 4,560 Level FlightAware UK
08:36AM 52.0890 -4.6860 281° West 455 524 36,000  Climbing FlightAware
08:37AM 52.0959 -4.7428 281° West 486 559 34,400 -2,940 Descending FlightAware UK
08:37AM 52.1029 -4.8031 281° West 484 557 34,400 3,180 Level FlightAware UK
08:37AM 52.1060 -4.8350 281° West 455 524 36,000  Climbing FlightAware
08:38AM 52.1215 -4.9641 281° West 484 557 34,400  Descending FlightAware UK
08:38AM 52.1220 -4.9700 281° West 456 525 36,000  Climbing FlightAware
08:38AM 52.1307 -5.0449 281° West 486 559 34,400 -2,400 Descending FlightAware UK
08:39AM 52.1376 -5.1055 281° West 484 557 34,500 3,840 Climbing FlightAware UK
08:39AM 52.1390 -5.1190 281° West 457 526 36,000  Climbing FlightAware
08:39AM 52.1527 -5.2050 281° West 490 564 34,500  Descending FlightAware UK
08:39AM 52.1610 -5.2510 281° West 457 526 36,000 -180 Climbing FlightAware
08:40AM 52.1745 -5.3236 281° West 488 562 34,400 -2,640 Descending FlightAware UK
08:40AM 52.1856 -5.3828 287° West 484 557 34,400 3,660 Level FlightAware UK
08:40AM 52.1890 -5.4020 287° West 458 527 36,000 240 Climbing FlightAware
08:40AM 52.2006 -5.4616 287° West 486 559 34,500 -2,700 Descending FlightAware UK
08:41AM 52.2118 -5.5210 287° West 490 564 34,500 3,720 Level FlightAware UK
08:41AM 52.2130 -5.5350 287° West 459 528 36,000  Climbing FlightAware
08:41AM 52.2230 -5.6019 287° West 490 564 34,500 -2,700 Descending FlightAware UK
08:41AM 52.2315 -5.6623 283° West 492 566 34,400 3,300 Descending FlightAware UK
08:41AM 52.2350 -5.6870 283° West 457 526 36,000 240 Climbing FlightAware
08:42AM 52.2429 -5.7429 283° West 494 568 34,500 -2,760 Descending FlightAware UK
08:42AM 52.2495 -5.8036 280° West 498 573 34,500 3,600 Level FlightAware UK
08:42AM 52.2510 -5.8210 280° West 455 524 36,000  Climbing FlightAware
08:42AM 52.2587 -5.8843 280° West 492 566 34,500 -2,760 Descending FlightAware UK
08:43AM 52.2657 -5.9449 281° West 496 571 34,400 3,900 Descending FlightAware UK
08:43AM 52.2670 -5.9550 281° West 453 521 36,000  Climbing FlightAware
08:43AM 52.2751 -6.0245 281° West 492 566 34,400 -2,460 Descending FlightAware UK
08:43AM 52.2825 -6.0847 281° West 494 568 34,500 3,660 Climbing FlightAware UK
08:44AM 52.2850 -6.1040 281° West 451 519 36,000  Climbing FlightAware
08:44AM 52.2922 -6.1646 281° West 494 568 34,500 -2,700 Descending FlightAware UK
08:44AM 52.2995 -6.2244 281° West 490 564 34,500 3,720 Level FlightAware UK
08:44AM 52.3000 -6.2290 281° West 449 517 36,000  Climbing FlightAware
08:45AM 52.3093 -6.3039 281° West 490 564 34,500 -2,520 Descending FlightAware UK
08:45AM 52.3163 -6.3635 281° West 486 559 34,500 3,300 Level FlightAware UK
08:45AM 52.3180 -6.3820 281° West 447 514 36,000  Climbing FlightAware
08:45AM 52.3257 -6.4428 281° West 484 557 34,500 -2,760 Descending FlightAware UK
08:46AM 52.3326 -6.5023 281° West 482 555 34,500 3,600 Level FlightAware UK
08:46AM 52.3340 -6.5200 281° West 447 514 36,000  Climbing FlightAware
08:46AM 52.3417 -6.5817 281° West 484 557 34,500 -2,580 Descending FlightAware UK
08:46AM 52.3486 -6.6414 281° West 482 555 34,500 3,900 Level FlightAware UK
08:46AM 52.3490 -6.6470 281° West 448 516 36,000  Climbing FlightAware
08:47AM 52.3577 -6.7211 281° West 480 552 34,500 -2,460 Descending FlightAware UK
08:47AM 52.3645 -6.7811 281° West 482 555 34,500 3,420 Level FlightAware UK
08:47AM 52.3670 -6.8020 281° West 451 519 36,000  Climbing FlightAware
08:47AM 52.3738 -6.8614 281° West 478 550 34,500 -2,700 Descending FlightAware UK
08:48AM 52.3805 -6.9219 280° West 482 555 34,500 3,720 Level FlightAware UK
08:48AM 52.3820 -6.9410 280° West 457 526 36,000  Climbing FlightAware
08:48AM 52.3896 -7.0040 280° West 490 564 34,500 -2,520 Descending FlightAware UK
08:48AM 52.3963 -7.0656 280° West 488 562 34,500 4,080 Level FlightAware UK
08:48AM 52.3970 -7.0750 280° West 458 527 36,000  Climbing FlightAware
08:49AM 52.4055 -7.1474 280° West 492 566 34,500 -2,400 Descending FlightAware UK
08:49AM 52.4121 -7.2079 280° West 486 559 34,500 3,600 Level FlightAware UK
08:49AM 52.4140 -7.2280 280° West 457 526 36,000 -300 Climbing FlightAware
08:49AM 52.4211 -7.2894 280° West 486 559 34,400 -2,580 Descending FlightAware UK
08:50AM 52.4278 -7.3505 280° West 486 559 34,500 4,140 Climbing FlightAware UK
08:50AM 52.4280 -7.3570 280° West 458 527 36,000  Climbing FlightAware
08:50AM 52.4367 -7.4322 280° West 484 557 34,500 -2,460 Descending FlightAware UK
08:50AM 52.4431 -7.4937 280° West 490 564 34,500 3,420 Level FlightAware UK
08:51AM 52.4440 -7.5060 280° West 460 529 36,000  Climbing FlightAware
08:51AM 52.4518 -7.5758 280° West 490 564 34,500 -2,700 Descending FlightAware UK
08:51AM 52.4585 -7.6374 280° West 490 564 34,500 3,720 Level FlightAware UK
08:51AM 52.4600 -7.6490 280° West 459 528 36,000  Climbing FlightAware
08:52AM 52.4671 -7.7196 280° West 492 566 34,500 -2,520 Descending FlightAware UK
08:52AM 52.4736 -7.7813 280° West 492 566 34,500 3,300 Level FlightAware UK
08:52AM 52.4760 -7.8000 280° West 457 526 36,000  Climbing FlightAware
08:52AM 52.4822 -7.8634 280° West 492 566 34,500 -2,760 Descending FlightAware UK
08:53AM 52.4888 -7.9248 280° West 492 566 34,500 3,600 Level FlightAware UK
08:53AM 52.4900 -7.9360 280° West 456 525 36,000  Climbing FlightAware
08:53AM 52.4971 -8.0066 280° West 492 566 34,500 -2,580 Descending FlightAware UK
08:53AM 52.5034 -8.0678 280° West 490 564 34,500 3,180 Level FlightAware UK
08:53AM 52.5060 -8.0970 280° West 454 522 36,000  Climbing FlightAware
08:54AM 52.5137 -8.1696 280° West 486 559 34,500  Descending FlightAware UK
08:54AM 52.5160 -8.1980 280° West 454 522 36,000  Climbing FlightAware
08:54AM 52.5238 -8.2711 280° West 488 562 34,500 -2,400 Descending FlightAware UK
08:55AM 52.5298 -8.3321 279° West 492 566 34,500 3,000 Level FlightAware UK
08:55AM 52.5310 -8.3490 279° West 453 521 36,000  Climbing FlightAware
08:55AM 52.5398 -8.4332 279° West 488 562 34,500 -2,520 Descending FlightAware UK
08:55AM 52.5459 -8.4943 279° West 490 564 34,500 4,080 Level FlightAware UK
08:55AM 52.5460 -8.4940 279° West 453 521 36,000  Climbing FlightAware
08:56AM 52.5539 -8.5757 279° West 488 562 34,500 -2,400 Descending FlightAware UK
08:56AM 52.5598 -8.6367 279° West 486 559 34,500 3,600 Level FlightAware UK
08:56AM 52.5600 -8.6400 279° West 452 520 36,000  Climbing FlightAware
08:56AM 52.5677 -8.7180 279° West 490 564 34,500 -2,580 Descending FlightAware UK
08:57AM 52.5735 -8.7790 279° West 486 559 34,500 3,900 Level FlightAware UK
08:57AM 52.5730 -8.7780 279° West 451 519 36,000  Climbing FlightAware
08:57AM 52.5814 -8.8604 279° West 488 562 34,500 -2,460 Descending FlightAware UK
08:57AM 52.5872 -8.9213 279° West 486 559 34,500 3,420 Level FlightAware UK
08:58AM 52.5870 -8.9210 279° West 452 520 36,000  Climbing FlightAware
08:58AM 52.5949 -9.0026 279° West 486 559 34,500  Descending FlightAware UK
08:58AM 52.6000 -9.0590 279° West 452 520 36,000 1,260 Climbing FlightAware
08:59AM 52.6160 -9.2300 279° West 451 519 36,000  Level FlightAware
09:00AM 52.6260 -9.3420 278° West 452 520 36,000  Level FlightAware
09:00AM 52.6370 -9.4650 278° West 453 521 36,000  Level FlightAware
09:01AM 52.6530 -9.6430 278° West 452 520 36,000  Level FlightAware
09:02AM 52.6640 -9.7730 278° West 452 520 36,000  Level FlightAware
09:02AM 52.6790 -9.9410 278° West 454 522 36,000  Level FlightAware
09:03AM 52.6890 -10.0660 278° West 456 525 36,000  Level FlightAware
09:06AM 52.7905 -10.5035 291° West  Level Estimated
09:06AM 52.7310 -10.5690 291° West 457 526 36,000  Level FlightAware
09:06AM 52.7440 -10.7390 277° West 457 526 36,000  Level FlightAware
09:09AM 52.8330 -11.1322 291° West  Level Estimated
09:10AM 52.8743 -11.3170 290° West  Level Estimated
09:11AM 52.9152 -11.5022 290° West  Level Estimated
09:11AM 52.8150 -11.6910 290° West 454 522 36,000  Level FlightAware
09:12AM 52.8290 -11.8990 276° West 453 521 36,000  Level FlightAware
09:13AM 52.8420 -12.0920 276° West 453 521 36,000 180 Level FlightAware
09:14AM 52.8540 -12.2740 276° West 450 518 36,400 600 Climbing FlightAware
09:15AM 52.8650 -12.4350 277° West 451 519 37,000 420 Climbing FlightAware
09:15AM 52.8730 -12.5650 276° West 449 517 37,000  Level FlightAware
09:16AM 52.8820 -12.7120 276° West 450 518 37,000  Level FlightAware
09:17AM 52.8910 -12.8590 276° West 450 518 37,000  Level FlightAware
09:17AM 52.8990 -12.9960 276° West 450 518 37,000  Level FlightAware
09:18AM 52.9080 -13.1740 275° West 450 518 37,000  Level FlightAware
09:19AM 52.9130 -13.2920 274° West 450 518 37,000  Level FlightAware
09:20AM 52.9180 -13.4090 274° West 450 518 37,000  Level FlightAware
09:20AM 52.9240 -13.5550 274° West 450 518 37,000  Level FlightAware
09:21AM 52.9290 -13.6720 274° West 450 518 37,000  Level FlightAware
09:22AM 52.9340 -13.7890 274° West 450 518 37,000  Level FlightAware
09:22AM 52.9390 -13.9060 274° West 450 518 37,000  Level FlightAware
09:23AM 52.9440 -14.0240 274° West 450 518 37,000  Level FlightAware
09:24AM 52.9500 -14.1700 274° West 450 518 37,000  Level FlightAware
09:25AM 52.9550 -14.2870 274° West 450 518 37,000  Level FlightAware
09:25AM 52.9600 -14.4050 274° West 450 518 37,000  Level FlightAware
09:26AM 52.9650 -14.5220 274° West 450 518 37,000  Level FlightAware
09:27AM 52.9710 -14.6680 274° West 450 518 37,000  Level FlightAware
09:27AM 52.9760 -14.7860 274° West 450 518 37,000  Level FlightAware
09:28AM 52.9780 -14.8440 273° West 450 518 37,000  Level FlightAware
09:30AM 53.0434 -15.1830 288° West  Level Estimated
09:31AM 53.0793 -15.3718 288° West  Level Estimated
09:32AM 53.1149 -15.5610 287° West  Level Estimated
09:33AM 53.1503 -15.7504 287° West  Level Estimated
09:34AM 53.1853 -15.9401 287° West  Level Estimated
09:35AM 53.2200 -16.1301 287° West  Level Estimated
09:36AM 53.2559 -16.3285 287° West  Level Estimated
09:37AM 53.2914 -16.5271 287° West  Level Estimated
09:38AM 53.3266 -16.7261 287° West  Level Estimated
09:39AM 53.3614 -16.9254 286° West  Level Estimated
09:40AM 53.3959 -17.1250 286° West  Level Estimated
09:41AM 53.4301 -17.3250 286° West  Level Estimated
09:42AM 53.4640 -17.5253 286° West  Level Estimated
09:43AM 53.4975 -17.7258 286° West  Level Estimated
09:44AM 53.5307 -17.9268 286° West  Level Estimated
09:45AM 53.5635 -18.1280 285° West  Level Estimated
09:46AM 53.5960 -18.3295 285° West  Level Estimated
09:47AM 53.6282 -18.5313 285° West  Level Estimated
09:48AM 53.6600 -18.7335 285° West  Level Estimated
09:49AM 53.6915 -18.9359 285° West  Level Estimated
09:50AM 53.7226 -19.1387 285° West  Level Estimated
09:51AM 53.7534 -19.3417 284° West  Level Estimated
09:52AM 53.7839 -19.5451 284° West  Level Estimated
09:52AM 53.0000 -20.0000 265° West 462 532 37,000  Level ETMS Enhanced Traffic Management System
09:53AM 53.8140 -19.7487 284° West  Level Estimated
09:54AM 53.8438 -19.9527 284° West  Level Estimated
09:55AM 53.8732 -20.1569 284° West  Level Estimated
09:56AM 53.9023 -20.3614 284° West  Level Estimated
09:57AM 53.9310 -20.5662 283° West  Level Estimated
09:58AM 52.9072 -21.4841 263° West 462 532 37,000  Level FlightAware Transoceanic
09:59AM 52.8924 -21.6956 263° West 462 532 37,000  Level FlightAware Transoceanic
10:00AM 52.8773 -21.9069 263° West 462 532 37,000  Level FlightAware Transoceanic
10:01AM 52.8618 -22.1181 263° West 462 532 37,000  Level FlightAware Transoceanic
10:02AM 52.8459 -22.3291 263° West 462 532 37,000  Level FlightAware Transoceanic
10:03AM 52.8296 -22.5400 263° West 462 532 37,000  Level FlightAware Transoceanic
10:04AM 52.8130 -22.7507 262° West 462 532 37,000  Level FlightAware Transoceanic
10:05AM 52.7959 -22.9612 262° West 462 532 37,000  Level FlightAware Transoceanic
10:06AM 52.7785 -23.1716 262° West 462 532 37,000  Level FlightAware Transoceanic
10:07AM 52.7608 -23.3818 262° West 462 532 37,000  Level FlightAware Transoceanic
10:08AM 52.7427 -23.5919 262° West 462 532 37,000  Level FlightAware Transoceanic
10:09AM 52.7242 -23.8017 262° West 462 532 37,000  Level FlightAware Transoceanic
10:10AM 52.7053 -24.0114 261° West 462 532 37,000  Level FlightAware Transoceanic
10:11AM 52.6861 -24.2209 261° West 462 532 37,000  Level FlightAware Transoceanic
10:12AM 52.6665 -24.4302 261° West 462 532 37,000  Level FlightAware Transoceanic
10:13AM 52.6465 -24.6394 261° West 462 532 37,000  Level FlightAware Transoceanic
10:14AM 52.6261 -24.8483 261° West 462 532 37,000  Level FlightAware Transoceanic
10:15AM 52.6054 -25.0570 261° West 462 532 37,000  Level FlightAware Transoceanic
10:16AM 52.5844 -25.2656 260° West 462 532 37,000  Level FlightAware Transoceanic
10:17AM 52.5629 -25.4739 260° West 462 532 37,000  Level FlightAware Transoceanic
10:18AM 52.5411 -25.6820 260° West 462 532 37,000  Level FlightAware Transoceanic
10:19AM 52.5189 -25.8899 260° West 462 532 37,000  Level FlightAware Transoceanic
10:20AM 52.4964 -26.0976 260° West 462 532 37,000  Level FlightAware Transoceanic
10:21AM 52.4735 -26.3051 260° West 462 532 37,000  Level FlightAware Transoceanic
10:22AM 52.4502 -26.5124 259° West 462 532 37,000  Level FlightAware Transoceanic
10:23AM 52.4266 -26.7195 259° West 462 532 37,000  Level FlightAware Transoceanic
10:24AM 52.4026 -26.9263 259° West 462 532 37,000  Level FlightAware Transoceanic
10:25AM 52.3783 -27.1329 259° West 462 532 37,000  Level FlightAware Transoceanic
10:26AM 52.3536 -27.3393 259° West 462 532 37,000  Level FlightAware Transoceanic
10:27AM 52.3285 -27.5454 259° West 462 532 37,000  Level FlightAware Transoceanic
10:28AM 52.3031 -27.7513 258° West 462 532 37,000  Level FlightAware Transoceanic
10:29AM 52.2773 -27.9570 258° West 462 532 37,000  Level FlightAware Transoceanic
10:30AM 52.2512 -28.1624 258° West 462 532 37,000  Level FlightAware Transoceanic
10:31AM 52.2247 -28.3676 258° West 462 532 37,000  Level FlightAware Transoceanic
10:32AM 52.1978 -28.5725 258° West 462 532 37,000  Level FlightAware Transoceanic
10:33AM 52.1706 -28.7772 258° West 462 532 37,000  Level FlightAware Transoceanic
10:34AM 52.1431 -28.9817 258° West 462 532 37,000  Level FlightAware Transoceanic
10:35AM 52.1152 -29.1859 257° West 462 532 37,000  Level FlightAware Transoceanic
10:36AM 52.0869 -29.3898 257° West 462 532 37,000  Level FlightAware Transoceanic
10:37AM 52.0583 -29.5935 257° West 462 532 37,000  Level FlightAware Transoceanic
10:38AM 52.0293 -29.7969 257° West 462 532 37,000  Level FlightAware Transoceanic
10:39AM 52.0017 -29.9884 257° West  Level FlightAware Approximate
10:40AM 51.9738 -30.1797 257° West  Level FlightAware Approximate
10:41AM 51.9727 -30.1670 255° West  Level FlightAware Approximate
10:42AM 51.9414 -30.3568 255° West  Level FlightAware Approximate
10:43AM 51.9099 -30.5452 255° West  Level FlightAware Approximate
10:44AM 51.8782 -30.7333 255° West  Level FlightAware Approximate
10:45AM 51.8461 -30.9211 255° West  Level FlightAware Approximate
10:46AM 51.8138 -31.1087 254° West  Level FlightAware Approximate
10:47AM 51.7813 -31.2960 255° West  Level FlightAware Approximate
10:48AM 51.7509 -31.4842 255° West  Level FlightAware Approximate
10:49AM 51.7202 -31.6721 255° West  Level FlightAware Approximate
10:50AM 51.6892 -31.8597 255° West  Level FlightAware Approximate
10:51AM 51.6579 -32.0471 255° West  Level FlightAware Approximate
10:52AM 51.6263 -32.2342 255° West  Level FlightAware Approximate
10:53AM 51.5944 -32.4211 255° West  Level FlightAware Approximate
10:54AM 51.5622 -32.6077 255° West  Level FlightAware Approximate
10:55AM 51.5297 -32.7940 254° West  Level FlightAware Approximate
10:56AM 51.4969 -32.9800 254° West  Level FlightAware Approximate
10:57AM 51.4638 -33.1658 254° West  Level FlightAware Approximate
10:58AM 51.4304 -33.3514 254° West  Level FlightAware Approximate
10:59AM 51.3968 -33.5366 254° West  Level FlightAware Approximate
11:00AM 51.3628 -33.7216 254° West  Level FlightAware Approximate
11:01AM 51.3285 -33.9063 254° West  Level FlightAware Approximate
11:02AM 51.2940 -34.0907 253° West  Level FlightAware Approximate
11:03AM 51.2592 -34.2748 253° West  Level FlightAware Approximate
11:04AM 51.2241 -34.4587 253° West  Level FlightAware Approximate
11:05AM 51.1887 -34.6423 253° West  Level FlightAware Approximate
11:06AM 51.1530 -34.8256 253° West  Level FlightAware Approximate
11:07AM 51.1170 -35.0086 253° West  Level FlightAware Approximate
11:08AM 51.0807 -35.1913 253° West  Level FlightAware Approximate
11:09AM 51.0442 -35.3738 252° West  Level FlightAware Approximate
11:10AM 51.0074 -35.5559 252° West  Level FlightAware Approximate
11:11AM 50.9702 -35.7378 252° West  Level FlightAware Approximate
11:12AM 50.9328 -35.9193 252° West  Level FlightAware Approximate
11:13AM 50.8952 -36.1006 252° West  Level FlightAware Approximate
11:14AM 50.8572 -36.2816 252° West  Level FlightAware Approximate
11:15AM 50.8190 -36.4623 252° West  Level FlightAware Approximate
11:16AM 50.7805 -36.6427 251° West  Level FlightAware Approximate
11:17AM 50.7417 -36.8228 251° West  Level FlightAware Approximate
11:18AM 50.7026 -37.0026 251° West  Level FlightAware Approximate
11:19AM 50.6633 -37.1821 251° West  Level FlightAware Approximate
11:20AM 50.6237 -37.3613 251° West  Level FlightAware Approximate
11:21AM 50.5838 -37.5402 251° West  Level FlightAware Approximate
11:22AM 50.5436 -37.7188 251° West  Level FlightAware Approximate
11:23AM 50.5032 -37.8970 250° West  Level FlightAware Approximate
11:24AM 50.4624 -38.0750 250° West  Level FlightAware Approximate
11:25AM 50.4215 -38.2527 250° West  Level FlightAware Approximate
11:26AM 50.3802 -38.4300 250° West  Level FlightAware Approximate
11:27AM 50.3387 -38.6071 250° West  Level FlightAware Approximate
11:28AM 50.2969 -38.7838 250° West  Level FlightAware Approximate
11:29AM 50.2548 -38.9603 250° West  Level FlightAware Approximate
11:30AM 50.2125 -39.1364 249° West  Level FlightAware Approximate
11:31AM 50.1699 -39.3122 249° West  Level FlightAware Approximate
11:32AM 50.1271 -39.4877 249° West  Level FlightAware Approximate
11:33AM 50.0838 -39.6636 249° West  Level FlightAware Approximate
11:34AM 50.0402 -39.8391 249° West  Level FlightAware Approximate
11:35AM 49.9977 -40.0150 257° West  Level FlightAware Approximate
11:36AM 49.9701 -40.1980 257° West  Level FlightAware Approximate
11:37AM 49.9421 -40.3807 257° West  Level FlightAware Approximate
11:38AM 49.9138 -40.5632 257° West  Level FlightAware Approximate
11:39AM 49.8853 -40.7454 256° West  Level FlightAware Approximate
11:40AM 49.8564 -40.9275 256° West  Level FlightAware Approximate
11:41AM 49.8273 -41.1094 256° West  Level FlightAware Approximate
11:42AM 49.7979 -41.2910 256° West  Level FlightAware Approximate
11:43AM 49.7682 -41.4724 256° West  Level FlightAware Approximate
11:44AM 49.7382 -41.6536 256° West  Level FlightAware Approximate
11:45AM 49.7080 -41.8345 256° West  Level FlightAware Approximate
11:46AM 49.6774 -42.0153 255° West  Level FlightAware Approximate
11:47AM 49.6466 -42.1958 255° West  Level FlightAware Approximate
11:48AM 49.6155 -42.3760 255° West  Level FlightAware Approximate
11:49AM 49.5841 -42.5561 255° West  Level FlightAware Approximate
11:50AM 49.5525 -42.7359 255° West  Level FlightAware Approximate
11:51AM 49.5205 -42.9155 255° West  Level FlightAware Approximate
11:52AM 49.4883 -43.0948 255° West  Level FlightAware Approximate
11:53AM 49.4558 -43.2739 254° West  Level FlightAware Approximate
11:54AM 49.4230 -43.4528 254° West  Level FlightAware Approximate
11:55AM 49.3900 -43.6314 254° West  Level FlightAware Approximate
11:56AM 49.3567 -43.8098 254° West  Level FlightAware Approximate
11:57AM 49.3231 -43.9879 254° West  Level FlightAware Approximate
11:58AM 49.2892 -44.1659 254° West  Level FlightAware Approximate
11:59AM 49.2551 -44.3435 254° West  Level FlightAware Approximate
12:00PM 49.2207 -44.5209 254° West  Level FlightAware Approximate
12:01PM 49.1860 -44.6981 253° West  Level FlightAware Approximate
12:02PM 49.1511 -44.8750 253° West  Level FlightAware Approximate
12:03PM 49.1158 -45.0516 253° West  Level FlightAware Approximate
12:04PM 49.0803 -45.2281 253° West  Level FlightAware Approximate
12:05PM 49.0446 -45.4042 253° West  Level FlightAware Approximate
12:06PM 49.0086 -45.5801 253° West  Level FlightAware Approximate
12:07PM 48.9723 -45.7558 253° West  Level FlightAware Approximate
12:08PM 48.9357 -45.9311 252° West  Level FlightAware Approximate
12:09PM 48.8989 -46.1063 252° West  Level FlightAware Approximate
12:10PM 48.8618 -46.2812 252° West  Level FlightAware Approximate
12:11PM 48.8245 -46.4558 252° West  Level FlightAware Approximate
12:12PM 48.7868 -46.6301 252° West  Level FlightAware Approximate
12:13PM 48.7490 -46.8042 252° West  Level FlightAware Approximate
12:14PM 48.7108 -46.9780 252° West  Level FlightAware Approximate
12:15PM 48.6724 -47.1516 252° West  Level FlightAware Approximate
12:16PM 48.6338 -47.3249 251° West  Level FlightAware Approximate
12:17PM 48.5948 -47.4979 251° West  Level FlightAware Approximate
12:18PM 48.5556 -47.6707 251° West  Level FlightAware Approximate
12:19PM 48.5162 -47.8432 251° West  Level FlightAware Approximate
12:20PM 48.4765 -48.0154 251° West  Level FlightAware Approximate
12:21PM 48.4366 -48.1874 251° West  Level FlightAware Approximate
12:22PM 48.3964 -48.3591 251° West  Level FlightAware Approximate
12:23PM 48.3559 -48.5305 250° West  Level FlightAware Approximate
12:24PM 48.3152 -48.7016 250° West  Level FlightAware Approximate
12:24PM 47.9690 -50.3780 250° West 467 537 37,000  Level FlightAware
12:25PM 48.2742 -48.8725 250° West  Level FlightAware Approximate
12:25PM 47.9700 -50.5160 271° West 466 536 37,000  Level FlightAware
12:25PM 47.9720 -50.6560 271° West 464 534 37,000  Level FlightAware
12:26PM 47.9740 -50.7840 271° West 465 535 37,000  Level FlightAware
12:27PM 47.9750 -50.9130 271° West 466 536 37,000  Level FlightAware
12:28PM 47.9770 -51.0590 271° West 466 536 37,000  Level FlightAware
12:28PM 47.9770 -51.1840 270° West 464 534 37,000 180 Level FlightAware
12:29PM 47.9770 -51.3150 270° West 463 533 37,300 540 Climbing FlightAware
12:30PM 47.9760 -51.4560 269° West 467 537 37,800 480 Climbing FlightAware
12:30PM 47.9760 -51.5840 270° West 464 534 38,000 120 Climbing FlightAware
12:31PM 47.9760 -51.7280 270° West 462 532 38,000  Level FlightAware
12:32PM 47.9750 -51.8540 269° West 459 528 38,000  Level FlightAware
12:32PM 47.9740 -51.9840 269° West 459 528 38,000  Level FlightAware
12:33PM 47.9730 -52.1240 269° West 458 527 38,000  Level FlightAware
12:34PM 47.9720 -52.2490 269° West 458 527 38,000  Level FlightAware
12:34PM 47.9710 -52.3610 269° West 458 527 38,000  Level FlightAware
12:35PM 47.9700 -52.5270 270° West 457 526 38,000  Level FlightAware
12:36PM 47.9680 -52.6520 269° West 456 525 38,000  Level FlightAware
12:37PM 47.9660 -52.7950 269° West 453 521 38,000  Level FlightAware
12:37PM 47.9640 -52.9210 269° West 451 519 38,000  Level FlightAware
12:38PM 47.9630 -53.0460 269° West 451 519 38,000  Level FlightAware
12:39PM 47.9600 -53.1810 268° West 449 517 38,000  Level FlightAware
12:39PM 47.9580 -53.3030 269° West 447 514 38,000  Level FlightAware
12:40PM 47.9560 -53.4450 269° West 446 513 38,000  Level FlightAware
12:41PM 47.9530 -53.5690 268° West 446 513 38,000  Level FlightAware
12:42PM 47.9500 -53.7020 268° West 447 514 38,000  Level FlightAware
12:42PM 47.9480 -53.8230 269° West 446 513 38,000  Level FlightAware
12:43PM 47.9450 -53.9470 268° West 444 511 38,000  Level FlightAware
12:44PM 47.9420 -54.0770 268° West 441 507 38,000  Level FlightAware
12:44PM 47.9380 -54.2100 267° West 441 507 38,000  Level FlightAware
12:45PM 47.9350 -54.3290 268° West 440 506 38,000  Level FlightAware
12:46PM 47.9320 -54.4640 268° West 440 506 38,000  Level FlightAware
12:46PM 47.9280 -54.5850 267° West 439 505 38,000  Level FlightAware
12:47PM 47.9250 -54.7030 268° West 437 503 38,000  Level FlightAware
12:48PM 47.9200 -54.8420 267° West 437 503 38,000  Level FlightAware
12:48PM 47.9160 -54.9620 267° West 436 502 38,000  Level FlightAware
12:49PM 47.9120 -55.0950 267° West 435 501 38,000  Level FlightAware
12:50PM 47.9080 -55.2120 267° West 434 499 38,000  Level FlightAware
12:51PM 47.9030 -55.3500 267° West 435 501 38,000  Level FlightAware
12:51PM 47.8990 -55.4710 267° West 434 499 38,000  Level FlightAware
12:52PM 47.8940 -55.5880 266° West 434 499 38,000  Level FlightAware
12:53PM 47.8890 -55.7220 267° West 435 501 38,000  Level FlightAware
12:53PM 47.8850 -55.8410 267° West 436 502 38,000  Level FlightAware
12:54PM 47.8790 -55.9790 266° West 436 502 38,000  Level FlightAware
12:55PM 47.8740 -56.0980 266° West 436 502 38,000  Level FlightAware
12:55PM 47.8690 -56.2160 266° West 436 502 38,000  Level FlightAware
12:56PM 47.8630 -56.3500 266° West 436 502 38,000  Level FlightAware
12:57PM 47.8580 -56.4680 266° West 438 504 38,000  Level FlightAware
12:58PM 47.8510 -56.6050 266° West 438 504 38,000  Level FlightAware
12:58PM 47.8450 -56.7400 266° West 437 503 38,000  Level FlightAware
12:59PM 47.8370 -56.9040 266° West 436 502 38,000  Level FlightAware
01:00PM 47.8310 -57.0120 265° West 436 502 38,000  Level FlightAware
01:01PM 47.8260 -57.1240 266° West 433 498 38,000  Level FlightAware
01:01PM 47.8190 -57.2430 265° West 433 498 38,000  Level FlightAware
01:02PM 47.8130 -57.3440 265° West 433 498 38,000  Level FlightAware
01:03PM 47.8060 -57.4710 265° West 433 498 38,000  Level FlightAware
01:03PM 47.8000 -57.5720 265° West 433 498 38,000  Level FlightAware
01:04PM 47.7940 -57.6730 265° West 433 498 38,000  Level FlightAware
01:05PM 47.7880 -57.7740 265° West 433 498 38,000  Level FlightAware
01:05PM 47.7820 -57.8750 265° West 433 498 38,000  Level FlightAware
01:06PM 47.7700 -58.1070 266° West 422 486 38,000  Level FlightAware
01:07PM 47.7630 -58.2060 264° West 422 486 38,000  Level FlightAware
01:08PM 47.7560 -58.3040 264° West 422 486 38,000  Level FlightAware
01:08PM 47.7480 -58.4270 265° West 422 486 38,000  Level FlightAware
01:09PM 47.7410 -58.5250 264° West 422 486 38,000  Level FlightAware
01:10PM 47.7340 -58.6230 264° West 422 486 38,000  Level FlightAware
01:10PM 47.7270 -58.7210 264° West 422 486 38,000  Level FlightAware
01:11PM 47.7170 -58.9570 266° West 418 481 38,000  Level FlightAware
01:12PM 47.7060 -59.1030 264° West 418 481 38,000  Level FlightAware
01:13PM 47.7000 -59.2000 265° West 418 481 38,000  Level FlightAware
01:13PM 47.6930 -59.2970 264° West 418 481 38,000  Level FlightAware
01:14PM 47.6860 -59.3940 264° West 418 481 38,000  Level FlightAware
01:15PM 47.6790 -59.4910 264° West 418 481 38,000  Level FlightAware
01:16PM 47.6700 -59.6130 264° West 418 481 38,000  Level FlightAware
01:16PM 47.6630 -59.7100 264° West 418 481 38,000  Level FlightAware
01:17PM 47.6570 -59.8070 265° West 418 481 38,000  Level FlightAware
01:18PM 47.6500 -59.9040 264° West 418 481 38,000  Level FlightAware
01:18PM 47.6430 -60.0010 264° West 418 481 38,000  Level FlightAware
01:19PM 47.6180 -60.2950 263° West 408 470 38,000  Level FlightAware
01:20PM 47.6070 -60.4410 264° West 410 472 38,000  Level FlightAware
01:21PM 47.5990 -60.5360 263° West 410 472 38,000  Level FlightAware
01:21PM 47.5890 -60.6550 263° West 410 472 38,000  Level FlightAware
01:22PM 47.5810 -60.7490 263° West 410 472 38,000  Level FlightAware
01:23PM 47.5730 -60.8440 263° West 410 472 38,000  Level FlightAware
01:23PM 47.5650 -60.9390 263° West 410 472 38,000  Level FlightAware
01:24PM 47.5460 -61.1600 263° West 416 479 38,000  Level FlightAware
01:25PM 47.5360 -61.2830 263° West 417 480 38,000  Level FlightAware
01:26PM 47.5250 -61.3990 262° West 418 481 38,000  Level FlightAware
01:26PM 47.5150 -61.5160 263° West 417 480 38,000  Level FlightAware
01:27PM 47.5020 -61.6520 262° West 416 479 38,000  Level FlightAware
01:28PM 47.4910 -61.7700 262° West 416 479 38,000  Level FlightAware
01:29PM 47.4800 -61.8910 262° West 414 476 38,000  Level FlightAware
01:29PM 47.4700 -61.9930 262° West 414 476 38,000  Level FlightAware
01:30PM 47.4610 -62.0880 262° West 414 476 38,000  Level FlightAware
01:31PM 47.4520 -62.1840 262° West 414 476 38,000  Level FlightAware
01:31PM 47.4410 -62.3030 262° West 414 476 38,000  Level FlightAware
01:32PM 47.4320 -62.3980 262° West 414 476 38,000  Level FlightAware
01:33PM 47.4230 -62.4930 262° West 414 476 38,000  Level FlightAware
01:33PM 47.4140 -62.5890 262° West 414 476 38,000  Level FlightAware
01:34PM 47.4050 -62.6840 262° West 414 476 38,000  Level FlightAware
01:35PM 47.3930 -62.8030 262° West 414 476 38,000  Level FlightAware
01:36PM 47.3840 -62.8980 262° West 414 476 38,000  Level FlightAware
01:36PM 47.3750 -62.9940 262° West 414 476 38,000  Level FlightAware
01:37PM 47.3660 -63.0890 262° West 414 476 38,000  Level FlightAware
01:38PM 47.3570 -63.1840 262° West 414 476 38,000  Level FlightAware
01:38PM 47.3460 -63.3030 262° West 414 476 38,000  Level FlightAware
01:39PM 47.2833 -63.6167 262° West 420 483 38,000  Level Gander Center
01:40PM 47.2667 -63.7667 261° West 420 483 38,000  Level Gander Center
01:41PM 47.2500 -63.9667 263° West 420 483 38,000  Level Gander Center
01:42PM 47.2333 -64.1167 261° West 420 483 38,000  Level Gander Center
01:43PM 47.2000 -64.3000 255° West 420 483 38,000  Level Gander Center
01:44PM 47.2000 -64.4833 270° West 420 483 38,000  Level Gander Center
01:45PM 47.1833 -64.6167 260° West 420 483 38,000  Level Gander Center
01:46PM 47.1500 -64.8000 255° West 420 483 38,000  Level Gander Center
01:47PM 47.1333 -64.9833 262° West 430 495 38,000  Level Gander Center
01:48PM 47.1167 -65.1333 261° West 430 495 38,000  Level Gander Center
01:49PM 47.0833 -65.3333 256° West 430 495 38,000  Level Gander Center
01:50PM 47.0667 -65.5333 263° West 430 495 38,000  Level Moncton Center
01:51PM 47.0333 -65.6667 250° West 430 495 38,000  Level Moncton Center
01:52PM 47.0167 -65.8667 263° West 430 495 38,000  Level Moncton Center
01:53PM 47.0000 -66.0333 262° West 440 506 38,000  Level Moncton Center
01:54PM 46.9833 -66.2167 262° West 440 506 38,000  Level Moncton Center
01:55PM 46.9500 -66.3833 254° West 440 506 38,000  Level Moncton Center
01:56PM 46.9333 -66.5500 262° West 440 506 38,000  Level Moncton Center
01:57PM 46.9000 -66.7500 256° West 440 506 38,000 -60 Level Moncton Center
01:58PM 46.8939 -66.8964 267° West 437 503 37,900  Descending Boston Center
01:59PM 46.8500 -67.0833 251° West 440 506 38,000  Climbing Moncton Center
02:00PM 46.8333 -67.2667 262° West 450 518 38,000  Level Moncton Center
02:06PM 46.7210 -68.2990 262° West 454 522 38,000  Level FlightAware
02:06PM 46.7040 -68.4300 259° West 453 521 38,000  Level FlightAware
02:07PM 46.6890 -68.5470 259° West 454 522 38,000  Level FlightAware
02:08PM 46.6700 -68.6930 259° West 453 521 38,000  Level FlightAware
02:08PM 46.6540 -68.8140 259° West 452 520 38,000  Level FlightAware
02:09PM 46.6390 -68.9290 259° West 450 518 38,000  Level FlightAware
02:10PM 46.6200 -69.0670 259° West 450 518 38,000  Level FlightAware
02:11PM 46.6040 -69.1850 259° West 450 518 38,000  Level FlightAware
02:11PM 46.5860 -69.3180 259° West 449 517 38,000  Level FlightAware
02:12PM 46.5700 -69.4350 259° West 451 519 38,000  Level FlightAware
02:13PM 46.5530 -69.5540 258° West 453 521 38,000  Level FlightAware
02:13PM 46.5350 -69.6880 259° West 454 522 38,000  Level FlightAware
02:14PM 46.5180 -69.8070 258° West 454 522 38,000  Level FlightAware
02:15PM 46.5010 -69.9250 258° West 455 524 38,000  Level FlightAware
02:15PM 46.4820 -70.0600 258° West 456 525 38,000  Level FlightAware
02:16PM 46.4640 -70.1790 258° West 456 525 38,000  Level FlightAware
02:17PM 46.4470 -70.2980 258° West 457 526 38,000  Level FlightAware
02:18PM 46.4270 -70.4320 258° West 457 526 38,000  Level FlightAware
02:18PM 46.4100 -70.5490 258° West 457 526 38,000  Level FlightAware
02:19PM 46.3890 -70.6850 257° West 456 525 38,000  Level FlightAware
02:20PM 46.3720 -70.8040 258° West 456 525 38,000  Level FlightAware
02:20PM 46.3540 -70.9220 258° West 456 525 38,000  Level FlightAware
02:21PM 46.3330 -71.0560 257° West 457 526 38,000  Level FlightAware
02:22PM 46.3150 -71.1740 258° West 456 525 38,000  Level FlightAware
02:22PM 46.2940 -71.3070 257° West 456 525 38,000  Level FlightAware
02:23PM 46.2750 -71.4250 257° West 455 524 38,000  Level FlightAware
02:24PM 46.2550 -71.5580 258° West 455 524 38,000  Level FlightAware
02:25PM 46.2360 -71.6760 257° West 454 522 38,000  Level FlightAware
02:25PM 46.2170 -71.7930 257° West 454 522 38,000  Level FlightAware
02:26PM 46.1960 -71.9250 257° West 454 522 38,000  Level FlightAware
02:27PM 46.1760 -72.0430 256° West 453 521 38,000  Level FlightAware
02:27PM 46.1570 -72.1610 257° West 453 521 38,000  Level FlightAware
02:28PM 46.1360 -72.2910 257° West 452 520 38,000  Level FlightAware
02:29PM 46.1160 -72.4090 256° West 451 519 38,000  Level FlightAware
02:29PM 46.0940 -72.5390 256° West 450 518 38,000  Level FlightAware
02:30PM 46.0750 -72.6540 257° West 449 517 38,000  Level FlightAware
02:31PM 46.0530 -72.7850 256° West 449 517 38,000  Level FlightAware
02:32PM 46.0330 -72.9010 256° West 449 517 38,000  Level FlightAware
02:32PM 46.0130 -73.0160 256° West 448 516 38,000  Level FlightAware
02:33PM 45.9910 -73.1450 256° West 448 516 38,000  Level FlightAware
02:34PM 45.9700 -73.2600 255° West 447 514 38,000  Level FlightAware
02:34PM 45.9500 -73.3760 256° West 446 513 38,000  Level FlightAware
02:35PM 45.9270 -73.5030 255° West 445 512 38,000  Level FlightAware
02:36PM 45.9070 -73.6160 256° West 444 511 38,000  Level FlightAware
02:36PM 45.8840 -73.7450 256° West 444 511 38,000  Level FlightAware
02:37PM 45.8640 -73.8560 256° West 443 510 38,000  Level FlightAware
02:38PM 45.8410 -73.9850 256° West 442 509 38,000  Level FlightAware
02:39PM 45.8200 -74.0980 255° West 442 509 38,000  Level FlightAware
02:39PM 45.7990 -74.2100 255° West 440 506 38,000  Level FlightAware
02:40PM 45.7760 -74.3340 255° West 440 506 38,000  Level FlightAware
02:41PM 45.7550 -74.4470 255° West 440 506 38,000  Level FlightAware
02:41PM 45.7350 -74.5540 255° West 439 505 38,000  Level FlightAware
02:42PM 45.7100 -74.6860 255° West 438 504 38,000  Level FlightAware
02:43PM 45.6890 -74.7960 255° West 437 503 38,000  Level FlightAware
02:43PM 45.6650 -74.9250 255° West 436 502 38,000  Level FlightAware
02:44PM 45.6440 -75.0330 254° West 436 502 38,000  Level FlightAware
02:45PM 45.6240 -75.1360 255° West 435 501 38,000  Level FlightAware
02:45PM 45.6020 -75.2520 255° West 436 502 38,000  Level FlightAware
02:46PM 45.5790 -75.3650 254° West 436 502 38,000  Level FlightAware
02:47PM 45.5550 -75.4890 255° West 435 501 38,000  Level FlightAware
02:48PM 45.5230 -75.6510 254° West 433 498 38,000  Level FlightAware
02:49PM 45.5040 -75.7470 254° West 432 497 38,000  Level FlightAware
02:49PM 45.4810 -75.8590 254° West 431 496 38,000  Level FlightAware
02:50PM 45.4560 -75.9810 254° West 430 495 38,000  Level FlightAware
02:51PM 45.4320 -76.0990 254° West 430 495 38,000  Level FlightAware
02:51PM 45.4080 -76.2170 254° West 429 494 38,000  Level FlightAware
02:52PM 45.3870 -76.3160 253° West 429 494 38,000  Level FlightAware
02:53PM 45.3630 -76.4160 251° West 428 493 38,000  Level FlightAware
02:53PM 45.3380 -76.5230 252° West 428 493 38,000  Level FlightAware
02:54PM 45.3070 -76.6550 252° West 432 497 38,000  Level FlightAware
02:55PM 45.2800 -76.7690 251° West 433 498 38,000  Level FlightAware
02:56PM 45.2530 -76.8850 252° West 433 498 38,000  Level FlightAware
02:56PM 45.2260 -76.9980 251° West 433 498 38,000  Level FlightAware
02:57PM 45.1990 -77.1090 251° West 434 499 38,000  Level FlightAware
02:58PM 45.1750 -77.2090 251° West 434 499 38,000  Level FlightAware
02:58PM 45.1430 -77.3410 251° West 433 498 38,000  Level FlightAware
02:59PM 45.1190 -77.4430 252° West 433 498 38,000  Level FlightAware
03:00PM 45.0890 -77.5650 251° West 433 498 38,000  Level FlightAware
03:00PM 45.0620 -77.6730 251° West 432 497 38,000  Level FlightAware
03:01PM 45.0370 -77.7760 251° West 432 497 38,000  Level FlightAware
03:02PM 45.0070 -77.8950 250° West 433 498 38,000  Level FlightAware
03:03PM 44.9790 -78.0080 251° West 433 498 38,000  Level FlightAware
03:03PM 44.9500 -78.1230 250° West 434 499 38,000  Level FlightAware
03:04PM 44.9230 -78.2300 250° West 435 501 38,000  Level FlightAware
03:05PM 44.8960 -78.3360 250° West 434 499 38,000  Level FlightAware
03:05PM 44.8650 -78.4580 250° West 433 498 38,000  Level FlightAware
03:06PM 44.8380 -78.5640 250° West 434 499 38,000  Level FlightAware
03:07PM 44.8080 -78.6830 250° West 434 499 38,000  Level FlightAware
03:08PM 44.7780 -78.7940 249° West 435 501 38,000  Level FlightAware
03:08PM 44.7400 -78.9040 244° Southwest 437 503 38,000  Level FlightAware
03:09PM 44.7030 -79.0080 243° Southwest 437 503 38,000  Level FlightAware
03:10PM 44.6670 -79.1060 243° Southwest 436 502 38,000  Level FlightAware
03:10PM 44.6250 -79.2210 243° Southwest 435 501 38,000  Level FlightAware
03:11PM 44.5880 -79.3210 243° Southwest 435 501 38,000  Level FlightAware
03:12PM 44.5500 -79.4230 242° Southwest 435 501 38,000  Level FlightAware
03:12PM 44.5100 -79.5310 243° Southwest 434 499 38,000  Level FlightAware
03:13PM 44.4740 -79.6280 243° Southwest 433 498 38,000  Level FlightAware
03:14PM 44.4320 -79.7410 243° Southwest 432 497 38,000  Level FlightAware
03:15PM 44.3890 -79.8550 242° Southwest 431 496 38,000  Level FlightAware
03:15PM 44.3520 -79.9530 242° Southwest 430 495 38,000  Level FlightAware
03:16PM 44.3210 -80.0370 243° Southwest 430 495 38,000  Level FlightAware
03:17PM 44.2730 -80.1620 242° Southwest 429 494 38,000  Level FlightAware
03:17PM 44.2370 -80.2580 242° Southwest 429 494 38,000  Level FlightAware
03:18PM 44.2030 -80.3450 241° Southwest 429 494 38,000  Level FlightAware
03:19PM 44.1570 -80.4650 242° Southwest 429 494 38,000  Level FlightAware
03:19PM 44.1210 -80.5610 242° Southwest 430 495 38,000  Level FlightAware
03:20PM 44.0840 -80.6550 241° Southwest 429 494 38,000  Level FlightAware
03:21PM 44.0400 -80.7690 242° Southwest 421 484 38,000  Level FlightAware
03:22PM 44.0000 -80.8710 241° Southwest 411 473 38,000  Level FlightAware
03:22PM 43.9670 -80.9570 242° Southwest 410 472 38,000  Level FlightAware
03:23PM 43.9280 -81.0580 242° Southwest 409 471 38,000  Level FlightAware
03:24PM 43.8840 -81.1670 241° Southwest 409 471 38,000  Level FlightAware
03:24PM 43.8490 -81.2570 242° Southwest 409 471 38,000  Level FlightAware
03:25PM 43.8140 -81.3470 242° Southwest 409 471 38,000  Level FlightAware
03:26PM 43.7740 -81.4460 241° Southwest 412 474 38,000  Level FlightAware
03:26PM 43.7380 -81.5380 242° Southwest 413 475 38,000  Level FlightAware
03:27PM 43.6960 -81.6420 241° Southwest 413 475 38,000  Level FlightAware
03:28PM 43.6580 -81.7360 241° Southwest 414 476 38,000  Level FlightAware
03:28PM 43.6190 -81.8330 241° Southwest 414 476 38,000  Level FlightAware
03:29PM 43.5810 -81.9280 241° Southwest 415 478 38,000  Level FlightAware
03:30PM 43.5470 -82.0120 241° Southwest 414 476 38,000  Level FlightAware
03:31PM 43.4960 -82.1380 241° Southwest 415 478 38,000  Level FlightAware
03:32PM 43.4520 -82.2450 240° Southwest 415 478 38,000  Level FlightAware
03:32PM 43.4110 -82.3440 240° Southwest 416 479 38,000  Level FlightAware
03:33PM 43.3790 -82.4230 241° Southwest 416 479 38,000  Level FlightAware
03:34PM 43.3240 -82.5530 240° Southwest 415 478 38,000  Level FlightAware
03:34PM 43.2870 -82.6430 241° Southwest 414 476 38,000  Level FlightAware
03:35PM 43.2540 -82.7280 242° Southwest 410 472 38,000 -240 Level FlightAware
03:36PM 43.2230 -82.8350 248° West 410 472 37,700 -720 Descending FlightAware
03:36PM 43.1950 -82.9370 249° West 407 468 37,000 -1,080 Descending FlightAware
03:37PM 43.1760 -83.0070 250° West 395 455 36,400 -1,800 Descending FlightAware
03:38PM 43.1470 -83.1110 249° West 389 448 34,800 -1,560 Descending FlightAware
03:39PM 43.1090 -83.2470 249° West 385 443 34,000 -540 Descending FlightAware
03:39PM 43.0830 -83.3380 249° West 385 443 34,000 -180 Level FlightAware
03:40PM 43.0560 -83.4340 249° West 391 450 33,800 -720 Descending FlightAware
03:41PM 43.0290 -83.5280 249° West 390 449 33,000 -1,320 Descending FlightAware
03:41PM 42.9990 -83.6340 249° West 390 449 32,000 -1,080 Descending FlightAware
03:42PM 42.9750 -83.7180 249° West 386 444 31,500 -1,440 Descending FlightAware
03:43PM 42.9600 -83.8160 258° West 392 451 30,100 -1,080 Descending FlightAware
03:43PM 42.9490 -83.9310 263° West 398 458 30,000 -120 Descending FlightAware
03:44PM 42.9400 -84.0290 263° West 399 459 30,000  Level FlightAware
03:45PM 42.9310 -84.1200 262° West 400 460 30,000  Level FlightAware
03:46PM 42.9180 -84.2460 262° West 401 461 30,000  Level FlightAware
03:46PM 42.9080 -84.3470 262° West 402 463 30,000  Level FlightAware
03:47PM 42.8980 -84.4450 262° West 389 448 30,000  Level FlightAware
03:48PM 42.8880 -84.5500 263° West 384 442 30,000  Level FlightAware
03:48PM 42.8760 -84.6610 262° West 384 442 30,000  Level FlightAware
03:49PM 42.8660 -84.7580 262° West 383 441 30,000  Level FlightAware
03:50PM 42.8560 -84.8530 262° West 384 442 30,000  Level FlightAware
03:50PM 42.8450 -84.9580 262° West 384 442 30,000  Level FlightAware
03:51PM 42.8350 -85.0530 262° West 370 426 30,000  Level FlightAware
03:52PM 42.8260 -85.1420 262° West 359 413 30,000  Level FlightAware
03:53PM 42.8150 -85.2430 262° West 358 412 30,000 -600 Level FlightAware
03:53PM 42.8050 -85.3340 262° West 356 410 29,200 -1,980 Descending FlightAware
03:54PM 42.7940 -85.4340 262° West 363 418 27,200 -2,760 Descending FlightAware
03:55PM 42.7820 -85.5240 260° West 383 441 25,300 -2,340 Descending FlightAware
03:55PM 42.7650 -85.6210 257° West 378 435 24,100 -1,680 Descending FlightAware
03:56PM 42.7470 -85.7210 256° West 377 434 23,000 -780 Descending FlightAware
03:57PM 42.7300 -85.8100 255° West 368 423 23,000 -600 Level FlightAware
03:57PM 42.7140 -85.8980 256° West 348 400 22,200 -1,440 Descending FlightAware
03:58PM 42.6970 -85.9960 257° West 351 404 21,000 -900 Descending FlightAware
03:59PM 42.6810 -86.0820 256° West 349 402 21,000  Level FlightAware
04:00PM 42.6630 -86.1790 256° West 373 429 21,000  Level FlightAware
04:00PM 42.6460 -86.2700 256° West 373 429 21,000 -1,140 Level FlightAware
04:01PM 42.6270 -86.3720 256° West 366 421 19,400 -2,280 Descending FlightAware
04:02PM 42.6100 -86.4630 256° West 365 420 17,800 -2,280 Descending FlightAware
04:02PM 42.5940 -86.5490 256° West 360 414 16,400 -1,980 Descending FlightAware
04:03PM 42.5760 -86.6460 256° West 349 402 15,000 -1,740 Descending FlightAware
04:04PM 42.5590 -86.7290 254° West 336 387 14,000 -1,020 Descending FlightAware
04:04PM 42.5370 -86.8110 250° West 300 345 13,600 -660 Descending FlightAware
04:05PM 42.5190 -86.8790 250° West 272 313 13,100 -1,020 Descending FlightAware
04:06PM 42.4990 -86.9500 249° West 259 298 12,200 -1,380 Descending FlightAware
04:07PM 42.4830 -87.0110 250° West 260 299 11,200 -1,440 Descending FlightAware
04:07PM 42.4670 -87.0690 250° West 258 297 10,300 -1,380 Descending FlightAware
04:08PM 42.4540 -87.1170 250° West 255 293 9,600 -1,320 Descending FlightAware
04:08PM 42.4440 -87.1530 249° West 252 290 9,100 -1,020 Descending FlightAware
04:09PM 42.4320 -87.1950 249° West 251 289 8,700 -1,020 Descending FlightAware
04:09PM 42.4180 -87.2400 247° West 247 284 8,100 -1,200 Descending FlightAware
04:10PM 42.4080 -87.2740 248° West 245 282 7,600 -1,320 Descending FlightAware
04:10PM 42.3940 -87.3170 246° West 242 278 6,900 -1,020 Descending FlightAware
04:10PM 42.3840 -87.3520 249° West 242 278 6,700 -300 Descending FlightAware
04:11PM 42.3770 -87.3750 248° West 241 277 6,700  Level FlightAware
04:11PM 42.3640 -87.4160 247° West 239 275 6,700  Level FlightAware
04:12PM 42.3550 -87.4480 249° West 230 265 6,700  Level FlightAware
04:12PM 42.3440 -87.4850 248° West 203 234 6,700  Level FlightAware
04:13PM 42.3350 -87.5150 248° West 201 231 6,700  Level FlightAware
04:13PM 42.3270 -87.5290 232° Southwest 199 229 6,700  Level FlightAware
04:13PM 42.3060 -87.5540 221° Southwest 202 232 6,700  Level FlightAware
04:14PM 42.2890 -87.5730 220° Southwest 201 231 6,700  Level FlightAware
04:14PM 42.2680 -87.5960 219° Southwest 171 197 6,700  Level FlightAware
04:14PM 42.2600 -87.6060 223° Southwest 161 185 6,700  Level FlightAware
04:15PM 42.2440 -87.6230 218° Southwest 159 183 6,700 -120 Level FlightAware
04:15PM 42.2270 -87.6420 220° Southwest 159 183 6,600 -540 Descending FlightAware
04:16PM 42.2190 -87.6510 220° Southwest 161 185 6,300 -1,080 Descending FlightAware
04:16PM 42.2050 -87.6660 218° Southwest 159 183 5,900 -1,020 Descending FlightAware
04:17PM 42.1870 -87.6860 219° Southwest 156 180 5,400 -960 Descending FlightAware
04:17PM 42.1800 -87.6940 220° Southwest 154 177 5,200 -900 Descending FlightAware
04:17PM 42.1660 -87.7100 220° Southwest 152 175 4,800 -900 Descending FlightAware
04:17PM 42.1580 -87.7190 220° Southwest 155 178 4,600 -960 Descending FlightAware
04:18PM 42.1400 -87.7380 218° Southwest 166 191 4,100 -1,020 Descending FlightAware
04:18PM 42.1260 -87.7550 222° Southwest 165 190 3,700 -900 Descending FlightAware
04:19PM 42.1070 -87.7750 218° Southwest 159 183 3,300 -900 Descending FlightAware
04:19PM 42.0900 -87.7940 220° Southwest 161 185 2,800 -1,020 Descending FlightAware
04:20PM 42.0760 -87.8100 220° Southwest 151 174 2,400 -900 Descending FlightAware
04:20PM 42.0690 -87.8180 220° Southwest 149 171 2,200 -840 Descending FlightAware
04:21PM 42.0530 -87.8350 218° Southwest 144 166 1,800 -780 Descending FlightAware
04:21PM 42.0400 -87.8490 219° Southwest 134 154 1,500 -660 Descending FlightAware
04:21PM 42.0270 -87.8640 221° Southwest 125 144 1,200 -660 Descending FlightAware
04:22PM 42.0170 -87.8750 219° Southwest 121 139 900 -780 Descending FlightAware
04:22PM 42.0020 -87.8910 218° Southwest 119 137 500 -840 Descending FlightAware
04:23PM 41.9950 -87.8990 220° Southwest 124 143 300 -840 Descending FlightAware